sensor_id;sensor_type;location;lat;lon;timestamp;temperature;humidity
41720;DHT22;27405;53.316;-6.294;2023-05-09T00:00:06;13.40;99.90
41720;DHT22;27405;53.316;-6.294;2023-05-09T00:02:35;13.40;99.90
41720;DHT22;27405;53.316;-6.294;2023-05-09T00:05:03;13.30;99.90
41720;DHT22;27405;53.316;-6.294;2023-05-09T00:07:29;13.30;99.90
41720;DHT22;27405;53.316;-6.294;2023-05-09T00:09:56;13.30;99.90
41720;DHT22;27405;53.316;-6.294;2023-05-09T00:12:21;13.30;99.90
41720;DHT22;27405;53.316;-6.294;2023-05-09T00:14:48;13.30;99.90
41720;DHT22;27405;53.316;-6.294;2023-05-09T00:17:17;13.20;99.90
41720;DHT22;27405;53.316;-6.294;2023-05-09T00:19:43;13.20;99.90
41720;DHT22;27405;53.316;-6.294;2023-05-09T00:22:09;13.20;99.90
41720;DHT22;27405;53.316;-6.294;2023-05-09T00:24:37;13.20;99.90
41720;DHT22;27405;53.316;-6.294;2023-05-09T00:27:03;13.20;99.90
41720;DHT22;27405;53.316;-6.294;2023-05-09T00:29:29;13.10;99.90
41720;DHT22;27405;53.316;-6.294;2023-05-09T00:31:55;13.10;99.90
41720;DHT22;27405;53.316;-6.294;2023-05-09T00:34:20;13.10;99.90
41720;DHT22;27405;53.316;-6.294;2023-05-09T00:36:46;13.10;99.90
41720;DHT22;27405;53.316;-6.294;2023-05-09T00:39:12;13.10;99.90
41720;DHT22;27405;53.316;-6.294;2023-05-09T00:41:38;13.10;99.90
41720;DHT22;27405;53.316;-6.294;2023-05-09T00:44:03;13.10;99.90
41720;DHT22;27405;53.316;-6.294;2023-05-09T00:46:30;13.00;99.90
41720;DHT22;27405;53.316;-6.294;2023-05-09T00:48:56;13.00;99.90
41720;DHT22;27405;53.316;-6.294;2023-05-09T00:51:22;13.00;99.90
41720;DHT22;27405;53.316;-6.294;2023-05-09T00:53:48;13.00;99.90
41720;DHT22;27405;53.316;-6.294;2023-05-09T00:56:14;13.00;99.90
41720;DHT22;27405;53.316;-6.294;2023-05-09T00:58:40;12.90;99.90
41720;DHT22;27405;53.316;-6.294;2023-05-09T01:01:06;12.90;99.90
41720;DHT22;27405;53.316;-6.294;2023-05-09T01:03:37;12.90;99.90
41720;DHT22;27405;53.316;-6.294;2023-05-09T01:06:24;12.90;99.90
41720;DHT22;27405;53.316;-6.294;2023-05-09T01:17:10;12.80;99.90
41720;DHT22;27405;53.316;-6.294;2023-05-09T01:19:51;12.80;99.90
41720;DHT22;27405;53.316;-6.294;2023-05-09T01:22:19;12.80;99.90
41720;DHT22;27405;53.316;-6.294;2023-05-09T01:30:35;12.70;99.90
41720;DHT22;27405;53.316;-6.294;2023-05-09T01:33:05;12.70;99.90
41720;DHT22;27405;53.316;-6.294;2023-05-09T01:35:32;12.70;99.90
41720;DHT22;27405;53.316;-6.294;2023-05-09T01:38:01;12.60;99.90
41720;DHT22;27405;53.316;-6.294;2023-05-09T01:40:31;12.60;99.90
41720;DHT22;27405;53.316;-6.294;2023-05-09T01:43:02;12.60;99.90
41720;DHT22;27405;53.316;-6.294;2023-05-09T01:45:30;12.50;99.90
41720;DHT22;27405;53.316;-6.294;2023-05-09T01:47:57;12.50;99.90
41720;DHT22;27405;53.316;-6.294;2023-05-09T01:50:24;12.50;99.90
41720;DHT22;27405;53.316;-6.294;2023-05-09T01:52:54;12.50;99.90
41720;DHT22;27405;53.316;-6.294;2023-05-09T01:55:22;12.50;99.90
41720;DHT22;27405;53.316;-6.294;2023-05-09T01:57:52;12.40;99.90
41720;DHT22;27405;53.316;-6.294;2023-05-09T02:00:20;12.40;99.90
41720;DHT22;27405;53.316;-6.294;2023-05-09T02:02:46;12.40;99.90
41720;DHT22;27405;53.316;-6.294;2023-05-09T02:05:13;12.40;99.90
41720;DHT22;27405;53.316;-6.294;2023-05-09T02:07:40;12.40;99.90
41720;DHT22;27405;53.316;-6.294;2023-05-09T02:10:08;12.40;99.90
41720;DHT22;27405;53.316;-6.294;2023-05-09T02:12:34;12.30;99.90
41720;DHT22;27405;53.316;-6.294;2023-05-09T02:15:00;12.30;99.90
41720;DHT22;27405;53.316;-6.294;2023-05-09T02:17:26;12.30;99.90
41720;DHT22;27405;53.316;-6.294;2023-05-09T02:19:55;12.30;99.90
41720;DHT22;27405;53.316;-6.294;2023-05-09T02:22:21;12.30;99.90
41720;DHT22;27405;53.316;-6.294;2023-05-09T02:24:47;12.20;99.90
41720;DHT22;27405;53.316;-6.294;2023-05-09T02:27:13;12.20;99.90
41720;DHT22;27405;53.316;-6.294;2023-05-09T02:29:45;12.20;99.90
41720;DHT22;27405;53.316;-6.294;2023-05-09T02:32:14;12.20;99.90
41720;DHT22;27405;53.316;-6.294;2023-05-09T02:34:41;12.20;99.90
41720;DHT22;27405;53.316;-6.294;2023-05-09T02:37:09;12.20;99.90
41720;DHT22;27405;53.316;-6.294;2023-05-09T02:39:35;12.20;99.90
41720;DHT22;27405;53.316;-6.294;2023-05-09T02:42:09;12.20;99.90
41720;DHT22;27405;53.316;-6.294;2023-05-09T02:44:36;12.20;99.90
41720;DHT22;27405;53.316;-6.294;2023-05-09T02:47:04;12.20;99.90
41720;DHT22;27405;53.316;-6.294;2023-05-09T02:49:30;12.20;99.90
41720;DHT22;27405;53.316;-6.294;2023-05-09T02:51:55;12.20;99.90
41720;DHT22;27405;53.316;-6.294;2023-05-09T02:54:21;12.10;99.90
41720;DHT22;27405;53.316;-6.294;2023-05-09T02:56:47;12.20;99.90
41720;DHT22;27405;53.316;-6.294;2023-05-09T02:59:12;12.10;99.90
41720;DHT22;27405;53.316;-6.294;2023-05-09T03:01:38;12.10;99.90
41720;DHT22;27405;53.316;-6.294;2023-05-09T03:04:04;12.10;99.90
41720;DHT22;27405;53.316;-6.294;2023-05-09T03:06:30;12.10;99.90
41720;DHT22;27405;53.316;-6.294;2023-05-09T03:08:56;12.10;99.90
41720;DHT22;27405;53.316;-6.294;2023-05-09T03:11:22;12.10;99.90
41720;DHT22;27405;53.316;-6.294;2023-05-09T03:13:48;12.00;99.90
41720;DHT22;27405;53.316;-6.294;2023-05-09T03:16:16;12.00;99.90
41720;DHT22;27405;53.316;-6.294;2023-05-09T03:18:42;12.00;99.90
41720;DHT22;27405;53.316;-6.294;2023-05-09T03:21:08;12.00;99.90
41720;DHT22;27405;53.316;-6.294;2023-05-09T03:23:33;12.00;99.90
41720;DHT22;27405;53.316;-6.294;2023-05-09T03:25:59;12.00;99.90
41720;DHT22;27405;53.316;-6.294;2023-05-09T03:28:25;11.90;99.90
41720;DHT22;27405;53.316;-6.294;2023-05-09T03:30:51;11.90;99.90
41720;DHT22;27405;53.316;-6.294;2023-05-09T03:33:16;11.90;99.90
41720;DHT22;27405;53.316;-6.294;2023-05-09T03:35:42;11.90;99.90
41720;DHT22;27405;53.316;-6.294;2023-05-09T03:38:07;11.90;99.90
41720;DHT22;27405;53.316;-6.294;2023-05-09T03:40:34;11.90;99.90
41720;DHT22;27405;53.316;-6.294;2023-05-09T03:43:00;11.80;99.90
41720;DHT22;27405;53.316;-6.294;2023-05-09T03:45:26;11.90;99.90
41720;DHT22;27405;53.316;-6.294;2023-05-09T03:47:51;11.80;99.90
41720;DHT22;27405;53.316;-6.294;2023-05-09T03:50:17;11.80;99.90
41720;DHT22;27405;53.316;-6.294;2023-05-09T03:52:43;11.80;99.90
41720;DHT22;27405;53.316;-6.294;2023-05-09T03:55:09;11.80;99.90
41720;DHT22;27405;53.316;-6.294;2023-05-09T03:57:35;11.80;99.90
41720;DHT22;27405;53.316;-6.294;2023-05-09T04:00:01;11.80;99.90
41720;DHT22;27405;53.316;-6.294;2023-05-09T04:02:28;11.80;99.90
41720;DHT22;27405;53.316;-6.294;2023-05-09T04:04:53;11.80;99.90
41720;DHT22;27405;53.316;-6.294;2023-05-09T04:07:19;11.80;99.90
41720;DHT22;27405;53.316;-6.294;2023-05-09T04:09:46;11.70;99.90
41720;DHT22;27405;53.316;-6.294;2023-05-09T04:12:12;11.70;99.90
41720;DHT22;27405;53.316;-6.294;2023-05-09T04:14:38;11.70;99.90
41720;DHT22;27405;53.316;-6.294;2023-05-09T04:17:03;11.70;99.90
41720;DHT22;27405;53.316;-6.294;2023-05-09T04:19:29;11.70;99.90
41720;DHT22;27405;53.316;-6.294;2023-05-09T04:21:55;11.70;99.90
41720;DHT22;27405;53.316;-6.294;2023-05-09T04:24:20;11.70;99.90
41720;DHT22;27405;53.316;-6.294;2023-05-09T04:26:46;11.80;99.90
41720;DHT22;27405;53.316;-6.294;2023-05-09T04:29:12;11.90;99.90
41720;DHT22;27405;53.316;-6.294;2023-05-09T04:31:38;12.00;99.90
41720;DHT22;27405;53.316;-6.294;2023-05-09T04:34:03;12.00;99.90
41720;DHT22;27405;53.316;-6.294;2023-05-09T04:36:29;12.10;99.90
41720;DHT22;27405;53.316;-6.294;2023-05-09T04:38:56;12.20;99.90
41720;DHT22;27405;53.316;-6.294;2023-05-09T04:41:22;12.30;99.90
41720;DHT22;27405;53.316;-6.294;2023-05-09T04:43:48;12.30;99.90
41720;DHT22;27405;53.316;-6.294;2023-05-09T04:46:14;12.40;99.90
41720;DHT22;27405;53.316;-6.294;2023-05-09T04:48:39;12.40;99.90
41720;DHT22;27405;53.316;-6.294;2023-05-09T04:51:06;12.40;99.90
41720;DHT22;27405;53.316;-6.294;2023-05-09T04:53:32;12.40;99.90
41720;DHT22;27405;53.316;-6.294;2023-05-09T04:55:58;12.50;99.90
41720;DHT22;27405;53.316;-6.294;2023-05-09T04:58:24;12.50;99.90
41720;DHT22;27405;53.316;-6.294;2023-05-09T05:00:51;12.60;99.90
41720;DHT22;27405;53.316;-6.294;2023-05-09T05:03:17;12.60;99.90
41720;DHT22;27405;53.316;-6.294;2023-05-09T05:05:43;12.70;99.90
41720;DHT22;27405;53.316;-6.294;2023-05-09T05:08:09;12.70;99.90
41720;DHT22;27405;53.316;-6.294;2023-05-09T05:10:35;12.70;99.90
41720;DHT22;27405;53.316;-6.294;2023-05-09T05:13:00;12.70;99.90
41720;DHT22;27405;53.316;-6.294;2023-05-09T05:15:26;12.80;99.90
41720;DHT22;27405;53.316;-6.294;2023-05-09T05:17:52;12.80;99.90
41720;DHT22;27405;53.316;-6.294;2023-05-09T05:20:17;12.80;99.90
41720;DHT22;27405;53.316;-6.294;2023-05-09T05:22:43;12.80;99.90
41720;DHT22;27405;53.316;-6.294;2023-05-09T05:25:09;12.90;99.90
41720;DHT22;27405;53.316;-6.294;2023-05-09T05:27:35;12.90;99.90
41720;DHT22;27405;53.316;-6.294;2023-05-09T05:30:01;13.00;99.90
41720;DHT22;27405;53.316;-6.294;2023-05-09T05:32:26;13.00;99.90
41720;DHT22;27405;53.316;-6.294;2023-05-09T05:34:52;13.00;99.90
41720;DHT22;27405;53.316;-6.294;2023-05-09T05:37:18;13.10;99.90
41720;DHT22;27405;53.316;-6.294;2023-05-09T05:39:43;13.10;99.90
41720;DHT22;27405;53.316;-6.294;2023-05-09T05:42:09;13.10;99.90
41720;DHT22;27405;53.316;-6.294;2023-05-09T05:44:35;13.00;99.90
41720;DHT22;27405;53.316;-6.294;2023-05-09T05:47:00;13.00;99.90
41720;DHT22;27405;53.316;-6.294;2023-05-09T05:49:26;13.00;99.90
41720;DHT22;27405;53.316;-6.294;2023-05-09T05:51:52;13.00;99.90
41720;DHT22;27405;53.316;-6.294;2023-05-09T05:54:17;13.00;99.90
41720;DHT22;27405;53.316;-6.294;2023-05-09T05:56:43;13.00;99.90
41720;DHT22;27405;53.316;-6.294;2023-05-09T05:59:08;13.00;99.90
41720;DHT22;27405;53.316;-6.294;2023-05-09T06:01:34;13.00;99.90
41720;DHT22;27405;53.316;-6.294;2023-05-09T06:04:00;13.00;99.90
41720;DHT22;27405;53.316;-6.294;2023-05-09T06:06:26;13.00;99.90
41720;DHT22;27405;53.316;-6.294;2023-05-09T06:08:51;13.10;99.90
41720;DHT22;27405;53.316;-6.294;2023-05-09T06:11:17;13.20;99.90
41720;DHT22;27405;53.316;-6.294;2023-05-09T06:13:43;13.20;99.90
41720;DHT22;27405;53.316;-6.294;2023-05-09T06:16:09;13.30;99.90
41720;DHT22;27405;53.316;-6.294;2023-05-09T06:18:35;13.30;99.90
41720;DHT22;27405;53.316;-6.294;2023-05-09T06:21:07;13.30;99.90
41720;DHT22;27405;53.316;-6.294;2023-05-09T06:23:33;13.40;99.90
41720;DHT22;27405;53.316;-6.294;2023-05-09T06:26:01;13.40;99.90
41720;DHT22;27405;53.316;-6.294;2023-05-09T06:28:27;13.50;99.90
41720;DHT22;27405;53.316;-6.294;2023-05-09T06:30:53;13.60;99.90
41720;DHT22;27405;53.316;-6.294;2023-05-09T06:33:18;13.60;99.90
41720;DHT22;27405;53.316;-6.294;2023-05-09T06:35:44;13.60;99.90
41720;DHT22;27405;53.316;-6.294;2023-05-09T06:38:09;13.60;99.90
41720;DHT22;27405;53.316;-6.294;2023-05-09T06:40:35;13.60;99.90
41720;DHT22;27405;53.316;-6.294;2023-05-09T06:43:01;13.70;99.90
41720;DHT22;27405;53.316;-6.294;2023-05-09T06:45:27;13.80;99.90
41720;DHT22;27405;53.316;-6.294;2023-05-09T06:47:52;13.90;99.90
41720;DHT22;27405;53.316;-6.294;2023-05-09T06:50:18;14.00;99.90
41720;DHT22;27405;53.316;-6.294;2023-05-09T06:52:44;14.10;99.90
41720;DHT22;27405;53.316;-6.294;2023-05-09T06:55:09;14.20;99.90
41720;DHT22;27405;53.316;-6.294;2023-05-09T06:57:35;14.40;99.90
41720;DHT22;27405;53.316;-6.294;2023-05-09T07:00:02;14.50;99.90
41720;DHT22;27405;53.316;-6.294;2023-05-09T07:02:29;14.60;99.90
41720;DHT22;27405;53.316;-6.294;2023-05-09T07:04:55;14.60;99.90
41720;DHT22;27405;53.316;-6.294;2023-05-09T07:07:21;14.60;99.90
41720;DHT22;27405;53.316;-6.294;2023-05-09T07:09:46;14.70;99.90
41720;DHT22;27405;53.316;-6.294;2023-05-09T07:12:12;14.80;99.90
41720;DHT22;27405;53.316;-6.294;2023-05-09T07:14:38;14.90;99.90
41720;DHT22;27405;53.316;-6.294;2023-05-09T07:17:03;14.90;99.90
41720;DHT22;27405;53.316;-6.294;2023-05-09T07:19:29;14.90;99.90
41720;DHT22;27405;53.316;-6.294;2023-05-09T07:21:55;14.90;99.90
41720;DHT22;27405;53.316;-6.294;2023-05-09T07:24:20;14.90;99.90
41720;DHT22;27405;53.316;-6.294;2023-05-09T07:26:46;14.90;99.90
41720;DHT22;27405;53.316;-6.294;2023-05-09T07:29:12;15.00;99.90
41720;DHT22;27405;53.316;-6.294;2023-05-09T07:31:37;15.00;99.90
41720;DHT22;27405;53.316;-6.294;2023-05-09T07:34:03;15.00;99.90
41720;DHT22;27405;53.316;-6.294;2023-05-09T07:36:29;15.00;99.90
41720;DHT22;27405;53.316;-6.294;2023-05-09T07:38:54;15.10;99.90
41720;DHT22;27405;53.316;-6.294;2023-05-09T07:41:20;15.10;99.90
41720;DHT22;27405;53.316;-6.294;2023-05-09T07:43:46;15.20;99.90
41720;DHT22;27405;53.316;-6.294;2023-05-09T07:46:12;15.30;99.90
41720;DHT22;27405;53.316;-6.294;2023-05-09T07:48:38;15.30;99.90
41720;DHT22;27405;53.316;-6.294;2023-05-09T07:51:03;15.30;99.90
41720;DHT22;27405;53.316;-6.294;2023-05-09T07:53:29;15.30;99.90
41720;DHT22;27405;53.316;-6.294;2023-05-09T07:55:55;15.20;99.90
41720;DHT22;27405;53.316;-6.294;2023-05-09T07:58:20;15.20;99.90
41720;DHT22;27405;53.316;-6.294;2023-05-09T08:00:46;15.10;99.90
41720;DHT22;27405;53.316;-6.294;2023-05-09T08:03:12;15.00;99.90
41720;DHT22;27405;53.316;-6.294;2023-05-09T08:05:37;15.00;99.90
41720;DHT22;27405;53.316;-6.294;2023-05-09T08:08:03;15.00;99.90
41720;DHT22;27405;53.316;-6.294;2023-05-09T08:10:29;14.90;99.90
41720;DHT22;27405;53.316;-6.294;2023-05-09T08:12:56;14.90;99.90
41720;DHT22;27405;53.316;-6.294;2023-05-09T08:15:22;14.90;99.90
41720;DHT22;27405;53.316;-6.294;2023-05-09T08:17:48;14.90;99.90
41720;DHT22;27405;53.316;-6.294;2023-05-09T08:20:13;14.90;99.90
41720;DHT22;27405;53.316;-6.294;2023-05-09T08:22:39;14.90;99.90
41720;DHT22;27405;53.316;-6.294;2023-05-09T08:25:06;14.90;99.90
41720;DHT22;27405;53.316;-6.294;2023-05-09T08:27:32;14.90;99.90
41720;DHT22;27405;53.316;-6.294;2023-05-09T08:29:58;14.90;99.90
41720;DHT22;27405;53.316;-6.294;2023-05-09T08:32:23;14.90;99.90
41720;DHT22;27405;53.316;-6.294;2023-05-09T08:34:49;14.90;99.90
41720;DHT22;27405;53.316;-6.294;2023-05-09T08:37:15;14.90;99.90
41720;DHT22;27405;53.316;-6.294;2023-05-09T08:39:41;14.90;99.90
41720;DHT22;27405;53.316;-6.294;2023-05-09T08:42:09;14.90;99.90
41720;DHT22;27405;53.316;-6.294;2023-05-09T08:44:35;15.00;99.90
41720;DHT22;27405;53.316;-6.294;2023-05-09T08:47:02;15.00;99.90
41720;DHT22;27405;53.316;-6.294;2023-05-09T08:49:28;15.00;99.90
41720;DHT22;27405;53.316;-6.294;2023-05-09T08:51:55;15.10;99.90
41720;DHT22;27405;53.316;-6.294;2023-05-09T08:54:22;15.10;99.90
41720;DHT22;27405;53.316;-6.294;2023-05-09T08:56:49;15.20;99.90
41720;DHT22;27405;53.316;-6.294;2023-05-09T08:59:16;15.20;99.90
41720;DHT22;27405;53.316;-6.294;2023-05-09T09:01:43;15.20;99.90
41720;DHT22;27405;53.316;-6.294;2023-05-09T09:04:08;15.10;99.90
41720;DHT22;27405;53.316;-6.294;2023-05-09T09:06:36;15.10;99.90
41720;DHT22;27405;53.316;-6.294;2023-05-09T09:09:05;15.00;99.90
41720;DHT22;27405;53.316;-6.294;2023-05-09T09:11:32;15.00;99.90
41720;DHT22;27405;53.316;-6.294;2023-05-09T09:14:05;14.90;99.90
41720;DHT22;27405;53.316;-6.294;2023-05-09T09:16:34;14.90;99.90
41720;DHT22;27405;53.316;-6.294;2023-05-09T09:19:00;14.90;99.90
41720;DHT22;27405;53.316;-6.294;2023-05-09T09:21:27;14.80;99.90
41720;DHT22;27405;53.316;-6.294;2023-05-09T09:23:54;14.90;99.90
41720;DHT22;27405;53.316;-6.294;2023-05-09T09:26:21;14.90;99.90
41720;DHT22;27405;53.316;-6.294;2023-05-09T09:28:46;14.90;99.90
41720;DHT22;27405;53.316;-6.294;2023-05-09T09:31:26;14.90;99.90
41720;DHT22;27405;53.316;-6.294;2023-05-09T09:34:01;15.00;99.90
41720;DHT22;27405;53.316;-6.294;2023-05-09T09:36:28;15.00;99.90
41720;DHT22;27405;53.316;-6.294;2023-05-09T09:39:02;15.10;99.90
41720;DHT22;27405;53.316;-6.294;2023-05-09T09:41:35;15.10;99.90
41720;DHT22;27405;53.316;-6.294;2023-05-09T09:44:07;15.20;99.90
41720;DHT22;27405;53.316;-6.294;2023-05-09T09:46:47;15.20;99.90
41720;DHT22;27405;53.316;-6.294;2023-05-09T09:49:16;15.30;99.90
41720;DHT22;27405;53.316;-6.294;2023-05-09T09:51:43;15.40;99.90
41720;DHT22;27405;53.316;-6.294;2023-05-09T09:54:10;15.50;99.90
41720;DHT22;27405;53.316;-6.294;2023-05-09T09:56:50;15.60;99.90
41720;DHT22;27405;53.316;-6.294;2023-05-09T09:59:23;15.70;99.90
41720;DHT22;27405;53.316;-6.294;2023-05-09T10:02:00;15.70;99.90
41720;DHT22;27405;53.316;-6.294;2023-05-09T10:04:30;15.80;99.90
41720;DHT22;27405;53.316;-6.294;2023-05-09T10:06:58;15.90;99.90
41720;DHT22;27405;53.316;-6.294;2023-05-09T10:09:25;15.80;99.90
41720;DHT22;27405;53.316;-6.294;2023-05-09T10:11:52;15.90;99.90
41720;DHT22;27405;53.316;-6.294;2023-05-09T10:14:19;15.80;99.90
41720;DHT22;27405;53.316;-6.294;2023-05-09T10:16:47;15.90;99.90
41720;DHT22;27405;53.316;-6.294;2023-05-09T10:19:19;15.90;99.90
41720;DHT22;27405;53.316;-6.294;2023-05-09T10:22:04;16.00;99.90
41720;DHT22;27405;53.316;-6.294;2023-05-09T10:24:41;16.00;99.90
41720;DHT22;27405;53.316;-6.294;2023-05-09T10:27:10;16.00;99.90
41720;DHT22;27405;53.316;-6.294;2023-05-09T10:29:44;16.10;99.90
41720;DHT22;27405;53.316;-6.294;2023-05-09T10:32:22;16.10;99.90
41720;DHT22;27405;53.316;-6.294;2023-05-09T10:34:51;16.10;99.90
41720;DHT22;27405;53.316;-6.294;2023-05-09T10:37:20;16.10;99.90
41720;DHT22;27405;53.316;-6.294;2023-05-09T10:39:46;16.10;99.90
41720;DHT22;27405;53.316;-6.294;2023-05-09T10:42:17;16.20;99.90
41720;DHT22;27405;53.316;-6.294;2023-05-09T10:44:45;16.20;99.90
41720;DHT22;27405;53.316;-6.294;2023-05-09T10:47:10;16.30;99.90
41720;DHT22;27405;53.316;-6.294;2023-05-09T10:49:38;16.30;99.90
41720;DHT22;27405;53.316;-6.294;2023-05-09T10:52:04;16.40;99.90
41720;DHT22;27405;53.316;-6.294;2023-05-09T10:54:30;16.50;99.90
41720;DHT22;27405;53.316;-6.294;2023-05-09T10:56:59;16.50;99.90
41720;DHT22;27405;53.316;-6.294;2023-05-09T10:59:38;16.50;99.90
41720;DHT22;27405;53.316;-6.294;2023-05-09T11:02:05;16.50;99.90
41720;DHT22;27405;53.316;-6.294;2023-05-09T11:04:38;16.50;99.90
41720;DHT22;27405;53.316;-6.294;2023-05-09T11:07:25;16.60;99.90
41720;DHT22;27405;53.316;-6.294;2023-05-09T11:10:15;16.60;99.90
41720;DHT22;27405;53.316;-6.294;2023-05-09T11:15:19;16.70;99.90
41720;DHT22;27405;53.316;-6.294;2023-05-09T11:17:50;16.90;99.90
41720;DHT22;27405;53.316;-6.294;2023-05-09T11:20:28;16.90;99.90
41720;DHT22;27405;53.316;-6.294;2023-05-09T11:22:57;17.00;99.90
41720;DHT22;27405;53.316;-6.294;2023-05-09T11:25:26;17.00;99.90
41720;DHT22;27405;53.316;-6.294;2023-05-09T11:27:57;17.10;99.90
41720;DHT22;27405;53.316;-6.294;2023-05-09T11:33:03;17.20;99.10
41720;DHT22;27405;53.316;-6.294;2023-05-09T11:35:31;17.20;98.90
41720;DHT22;27405;53.316;-6.294;2023-05-09T11:38:04;17.30;98.70
41720;DHT22;27405;53.316;-6.294;2023-05-09T11:40:31;17.30;98.10
41720;DHT22;27405;53.316;-6.294;2023-05-09T11:42:58;17.40;97.80
41720;DHT22;27405;53.316;-6.294;2023-05-09T11:45:26;17.40;97.80
41720;DHT22;27405;53.316;-6.294;2023-05-09T11:47:52;17.50;97.60
41720;DHT22;27405;53.316;-6.294;2023-05-09T11:50:19;17.60;97.90
41720;DHT22;27405;53.316;-6.294;2023-05-09T11:52:46;17.70;97.30
41720;DHT22;27405;53.316;-6.294;2023-05-09T11:55:14;17.90;96.90
41720;DHT22;27405;53.316;-6.294;2023-05-09T11:57:46;18.00;96.50
41720;DHT22;27405;53.316;-6.294;2023-05-09T12:00:17;18.20;96.30
41720;DHT22;27405;53.316;-6.294;2023-05-09T12:02:44;18.40;96.30
41720;DHT22;27405;53.316;-6.294;2023-05-09T12:05:13;18.70;95.80
41720;DHT22;27405;53.316;-6.294;2023-05-09T12:07:39;18.90;95.10
41720;DHT22;27405;53.316;-6.294;2023-05-09T12:10:09;19.00;95.60
41720;DHT22;27405;53.316;-6.294;2023-05-09T12:12:42;19.20;94.50
41720;DHT22;27405;53.316;-6.294;2023-05-09T12:15:08;19.10;94.00
41720;DHT22;27405;53.316;-6.294;2023-05-09T12:17:34;19.10;93.50
41720;DHT22;27405;53.316;-6.294;2023-05-09T12:20:00;18.90;93.40
41720;DHT22;27405;53.316;-6.294;2023-05-09T12:22:27;19.00;93.20
41720;DHT22;27405;53.316;-6.294;2023-05-09T12:24:55;19.00;93.30
41720;DHT22;27405;53.316;-6.294;2023-05-09T12:27:21;19.20;93.10
41720;DHT22;27405;53.316;-6.294;2023-05-09T12:29:47;19.20;92.90
41720;DHT22;27405;53.316;-6.294;2023-05-09T12:32:16;19.30;92.60
41720;DHT22;27405;53.316;-6.294;2023-05-09T12:34:42;19.30;92.30
41720;DHT22;27405;53.316;-6.294;2023-05-09T12:37:14;19.40;92.10
41720;DHT22;27405;53.316;-6.294;2023-05-09T12:39:40;19.40;92.10
41720;DHT22;27405;53.316;-6.294;2023-05-09T12:42:11;19.40;91.90
41720;DHT22;27405;53.316;-6.294;2023-05-09T12:44:37;19.50;92.00
41720;DHT22;27405;53.316;-6.294;2023-05-09T12:47:03;19.60;92.00
41720;DHT22;27405;53.316;-6.294;2023-05-09T12:49:30;19.70;91.60
41720;DHT22;27405;53.316;-6.294;2023-05-09T12:51:58;19.90;91.00
41720;DHT22;27405;53.316;-6.294;2023-05-09T12:54:28;19.90;90.30
41720;DHT22;27405;53.316;-6.294;2023-05-09T12:56:56;19.90;90.00
41720;DHT22;27405;53.316;-6.294;2023-05-09T12:59:24;20.00;91.30
41720;DHT22;27405;53.316;-6.294;2023-05-09T13:01:58;20.00;91.80
41720;DHT22;27405;53.316;-6.294;2023-05-09T13:04:25;20.00;91.20
41720;DHT22;27405;53.316;-6.294;2023-05-09T13:06:56;19.90;91.20
41720;DHT22;27405;53.316;-6.294;2023-05-09T13:09:26;19.90;91.60
41720;DHT22;27405;53.316;-6.294;2023-05-09T13:11:54;19.80;92.00
41720;DHT22;27405;53.316;-6.294;2023-05-09T13:14:21;19.70;92.20
41720;DHT22;27405;53.316;-6.294;2023-05-09T13:16:47;19.70;92.00
41720;DHT22;27405;53.316;-6.294;2023-05-09T13:19:13;19.70;91.70
41720;DHT22;27405;53.316;-6.294;2023-05-09T13:21:39;19.70;91.40
41720;DHT22;27405;53.316;-6.294;2023-05-09T13:24:05;19.80;91.50
41720;DHT22;27405;53.316;-6.294;2023-05-09T13:26:31;19.90;91.10
41720;DHT22;27405;53.316;-6.294;2023-05-09T13:28:57;20.00;90.90
41720;DHT22;27405;53.316;-6.294;2023-05-09T13:31:22;20.00;90.50
41720;DHT22;27405;53.316;-6.294;2023-05-09T13:33:49;20.00;89.80
41720;DHT22;27405;53.316;-6.294;2023-05-09T13:36:15;19.90;89.00
41720;DHT22;27405;53.316;-6.294;2023-05-09T13:38:41;19.90;88.90
41720;DHT22;27405;53.316;-6.294;2023-05-09T13:41:08;20.00;88.50
41720;DHT22;27405;53.316;-6.294;2023-05-09T13:43:34;20.10;87.50
41720;DHT22;27405;53.316;-6.294;2023-05-09T13:46:01;20.20;85.80
41720;DHT22;27405;53.316;-6.294;2023-05-09T13:48:26;20.20;85.10
41720;DHT22;27405;53.316;-6.294;2023-05-09T13:50:52;20.40;84.10
41720;DHT22;27405;53.316;-6.294;2023-05-09T13:53:18;20.40;83.80
41720;DHT22;27405;53.316;-6.294;2023-05-09T13:55:44;20.60;83.20
41720;DHT22;27405;53.316;-6.294;2023-05-09T13:58:11;20.80;82.30
41720;DHT22;27405;53.316;-6.294;2023-05-09T14:00:37;20.80;81.50
41720;DHT22;27405;53.316;-6.294;2023-05-09T14:03:02;20.70;81.30
41720;DHT22;27405;53.316;-6.294;2023-05-09T14:05:31;20.70;81.40
41720;DHT22;27405;53.316;-6.294;2023-05-09T14:07:57;20.70;81.00
41720;DHT22;27405;53.316;-6.294;2023-05-09T14:10:23;20.70;80.80
41720;DHT22;27405;53.316;-6.294;2023-05-09T14:12:52;20.60;80.20
41720;DHT22;27405;53.316;-6.294;2023-05-09T14:15:18;20.60;80.00
41720;DHT22;27405;53.316;-6.294;2023-05-09T14:17:44;20.60;79.70
41720;DHT22;27405;53.316;-6.294;2023-05-09T14:20:10;20.40;79.70
41720;DHT22;27405;53.316;-6.294;2023-05-09T14:22:36;20.10;80.00
41720;DHT22;27405;53.316;-6.294;2023-05-09T14:25:02;19.70;78.70
41720;DHT22;27405;53.316;-6.294;2023-05-09T14:27:27;19.30;78.50
41720;DHT22;27405;53.316;-6.294;2023-05-09T14:29:53;18.80;78.50
41720;DHT22;27405;53.316;-6.294;2023-05-09T14:32:19;18.40;83.50
41720;DHT22;27405;53.316;-6.294;2023-05-09T14:34:45;17.60;90.00
41720;DHT22;27405;53.316;-6.294;2023-05-09T14:37:14;16.70;91.80
41720;DHT22;27405;53.316;-6.294;2023-05-09T14:39:40;15.90;94.30
41720;DHT22;27405;53.316;-6.294;2023-05-09T14:42:13;15.30;96.10
41720;DHT22;27405;53.316;-6.294;2023-05-09T14:44:41;14.90;97.70
41720;DHT22;27405;53.316;-6.294;2023-05-09T14:47:07;14.80;99.40
41720;DHT22;27405;53.316;-6.294;2023-05-09T14:49:35;15.00;99.90
41720;DHT22;27405;53.316;-6.294;2023-05-09T14:52:00;15.30;99.90
41720;DHT22;27405;53.316;-6.294;2023-05-09T14:54:26;15.40;99.90
41720;DHT22;27405;53.316;-6.294;2023-05-09T14:56:52;15.40;99.90
41720;DHT22;27405;53.316;-6.294;2023-05-09T14:59:17;15.50;99.90
41720;DHT22;27405;53.316;-6.294;2023-05-09T15:01:43;15.60;99.90
41720;DHT22;27405;53.316;-6.294;2023-05-09T15:04:10;15.60;99.90
41720;DHT22;27405;53.316;-6.294;2023-05-09T15:06:36;15.80;99.90
41720;DHT22;27405;53.316;-6.294;2023-05-09T15:09:02;15.90;99.90
41720;DHT22;27405;53.316;-6.294;2023-05-09T15:11:28;16.00;99.90
41720;DHT22;27405;53.316;-6.294;2023-05-09T15:13:54;16.20;99.90
41720;DHT22;27405;53.316;-6.294;2023-05-09T15:16:20;16.40;99.90
41720;DHT22;27405;53.316;-6.294;2023-05-09T15:18:45;16.90;99.90
41720;DHT22;27405;53.316;-6.294;2023-05-09T15:21:11;17.80;99.90
41720;DHT22;27405;53.316;-6.294;2023-05-09T15:23:37;19.00;99.90
41720;DHT22;27405;53.316;-6.294;2023-05-09T15:26:06;20.10;99.90
41720;DHT22;27405;53.316;-6.294;2023-05-09T15:28:37;21.10;99.90
41720;DHT22;27405;53.316;-6.294;2023-05-09T15:31:04;21.50;99.90
41720;DHT22;27405;53.316;-6.294;2023-05-09T15:33:30;21.00;99.90